Terminal Aerodrome Forecast
Issued by NWS

Home | Current Version | Previous Version | Text Only | Print | Product List | Glossary On
Versions: 1 2 3 4 5 6 7 8 9 10 11 12 13 14 15 16 17 18 19 20 21 22 23 24
000
FTUS45 KBOU 251730
TAFBJC
TAF
KBJC 251730Z 2518/2618 VRB03KT P6SM FEW150 BKN220
     FM251900 15010KT P6SM FEW150 BKN220
     FM260200 18009KT P6SM SCT100 BKN150
     FM260700 31008KT P6SM BKN050 OVC080
     FM261000 35007KT P6SM VCSH SCT025 OVC040
      TEMPO 2612/2616 4SM -SHRA OVC025=

USA.gov is the U.S. government's official web portal to all federal, state and local government web resources and services.